KGFA/GFA METAR and TAF weather

Enter ICAO airport designator
Station Type Date Time Source
KGFA METAR 2021/05/14 13:58 UTC NOAA

KGFA 141358Z AUTO 00000KT 10SM CLR 09/05 A3016 RMK AO2 SLP222 T00940049 $


Station Type Date Time Source
KGFA Decoded METAR 2021/05/14 13:58 UTC NOAA

Malmstrom Air Force Base, MT, United States (KGFA) 47-30N 111-11W
May 14, 2021 - 09:58 AM EDT / 2021.05.14 1358 UTC
Wind: Calm:0
Visibility: 10 mile(s):0
Sky conditions: clear
Temperature: 48.9 F (9.4 C)
Dew Point: 40.8 F (4.9 C)
Relative Humidity: 73%
Pressure (altimeter): 30.16 in. Hg (1021 hPa)
ob: KGFA 141358Z AUTO 00000KT 10SM CLR 09/05 A3016 RMK AO2 SLP222 T00940049
cycle: 14

Station Type Date Time Source
KGFA TAF 2021/05/14 11:02 UTC NOAA

TAF KGFA 141100Z 1411/1517 VRB06KT 9999 FEW130 QNH3012INS
BECMG 1417/1418 28010G15KT 9999 SKC QNH3006INS
BECMG 1503/1504 VRB06KT 9999 SKC QNH3003INS TX18/1419Z TN05/1413Z

Example: see airport list